Alliance, Canada
Current Conditions -  °F | °C
As of 1:00 PM on Sunday 25 Jan 2015 (Local Time) from CYQF Reporting Station
Broken Clouds Broken Clouds  
Wind Chill: 43°   Ceiling: 25000
Heat Index: 43°   Visibility: 15mi
Dew Point: 32°   Wind: 3mph
Humidity: 66%   Direction: 170°S
Pressure: 29.76"   Gusts: NA
Location:  52.43°N, 111.78°W
Report Text: CYQF 252000Z 17003KT 15SM SCT110 BKN250 06/M00 A2976 RMK AC3CI3 SLP105
Loading
Personal Weather Stations






























Interactive Weather Map New forecast layout! Learn more

10-Day Weather Forecast

Advertisements
Track Severe Weather on mobile